Time;durP1;ratioP1;P1;durP2;ratioP2;P2;SDS_P1;SDS_P2;PMS_P1;PMS_P2;Temp;Humidity;BMP_temperature;BMP_pressure;BME280_temperature;BME280_humidity;BME280_pressure;Samples;Min_cycle;Max_cycle;Signal;HPM_P1;HPM_P2
2022/12/01 00:01:09;;;;;;;19.02;12.20;;;;;;;2.81;83.90;102105.27;1786329;79;27538;-83
2022/12/01 00:03:36;;;;;;;18.20;11.45;;;;;;;2.82;83.87;102109.62;1775059;80;25803;-84
2022/12/01 00:06:08;;;;;;;21.48;12.20;;;;;;;2.80;83.98;102103.58;1757086;80;25786;-83
2022/12/01 00:08:34;;;;;;;17.87;11.25;;;;;;;2.82;84.04;102105.66;1764303;80;26436;-84
2022/12/01 00:11:07;;;;;;;18.50;10.65;;;;;;;2.83;84.05;102109.52;1789753;79;26475;-83
2022/12/01 00:13:36;;;;;;;18.32;11.50;;;;;;;2.85;84.08;102114.69;1790828;78;28262;-83
2022/12/01 00:16:15;;;;;;;18.60;11.08;;;;;;;2.83;84.19;102110.84;1784690;78;26372;-83
2022/12/01 00:18:42;;;;;;;19.30;11.75;;;;;;;2.86;84.18;102112.44;1743006;80;25896;-84
2022/12/01 00:21:19;;;;;;;20.85;11.40;;;;;;;2.89;84.31;102111.75;1777041;79;25920;-84
2022/12/01 00:23:48;;;;;;;23.77;12.40;;;;;;;2.91;84.23;102112.50;1768138;80;25745;-84
2022/12/01 00:26:16;;;;;;;17.65;11.03;;;;;;;2.90;84.13;102111.28;1772187;80;27450;-83
2022/12/01 00:28:43;;;;;;;21.15;12.18;;;;;;;2.87;84.08;102110.15;1771382;80;25858;-84
2022/12/01 00:31:11;;;;;;;19.32;11.83;;;;;;;2.84;84.20;102112.55;1770250;79;25529;-84
2022/12/01 00:33:38;;;;;;;20.23;12.15;;;;;;;2.84;84.14;102109.90;1765828;79;25990;-84
2022/12/01 00:36:06;;;;;;;21.52;11.97;;;;;;;2.81;84.11;102107.44;1780029;79;25852;-83
2022/12/01 00:38:34;;;;;;;18.15;12.40;;;;;;;2.80;84.25;102114.99;1769854;79;27532;-83
2022/12/01 00:41:00;;;;;;;19.20;11.78;;;;;;;2.80;84.37;102109.70;1761088;79;25328;-83
2022/12/01 00:43:27;;;;;;;18.07;11.30;;;;;;;2.79;84.35;102108.02;1770477;79;26397;-83
2022/12/01 00:45:55;;;;;;;19.95;11.45;;;;;;;2.78;84.24;102102.34;1756860;79;26516;-84
2022/12/01 00:48:22;;;;;;;22.10;11.08;;;;;;;2.77;84.37;102105.09;1762059;79;26355;-83
2022/12/01 00:50:51;;;;;;;20.60;11.73;;;;;;;2.74;84.38;102101.31;1754337;79;27609;-83
2022/12/01 00:53:18;;;;;;;18.95;10.90;;;;;;;2.71;84.50;102101.06;1765022;79;25802;-84
2022/12/01 00:55:44;;;;;;;18.90;12.05;;;;;;;2.67;84.54;102099.57;1779722;79;25553;-84
2022/12/01 00:58:11;;;;;;;19.12;12.13;;;;;;;2.67;84.64;102098.25;1742839;80;26350;-84
2022/12/01 01:00:41;;;;;;;17.42;10.82;;;;;;;2.65;84.76;102092.67;1755717;79;26569;-83
2022/12/01 01:03:09;;;;;;;16.17;11.28;;;;;;;2.62;84.65;102088.89;1774688;79;27466;-83
2022/12/01 01:05:40;;;;;;;19.02;11.53;;;;;;;2.61;84.87;102085.89;1800791;78;25298;-84
2022/12/01 01:08:13;;;;;;;22.67;12.37;;;;;;;2.59;84.88;102085.97;1764181;79;25965;-84
2022/12/01 01:10:42;;;;;;;19.27;10.88;;;;;;;2.58;85.05;102095.33;1775497;79;25838;-84
2022/12/01 01:13:08;;;;;;;19.07;12.18;;;;;;;2.56;85.15;102090.16;1794677;79;25960;-83
2022/12/01 01:15:35;;;;;;;23.15;12.13;;;;;;;2.54;85.27;102090.73;1755362;79;27433;-84
2022/12/01 01:18:02;;;;;;;18.15;11.20;;;;;;;2.55;85.30;102080.97;1754810;79;26551;-83
2022/12/01 01:20:28;;;;;;;21.33;12.55;;;;;;;2.52;85.28;102083.83;1782376;79;25822;-83
2022/12/01 01:22:55;;;;;;;20.68;11.38;;;;;;;2.50;85.37;102076.47;1778477;79;26531;-83
2022/12/01 01:25:21;;;;;;;18.70;10.98;;;;;;;2.50;85.53;102079.97;1756260;79;25934;-84
2022/12/01 01:27:48;;;;;;;20.12;12.00;;;;;;;2.51;85.57;102081.66;1758315;79;27453;-83
2022/12/01 01:30:14;;;;;;;17.82;10.95;;;;;;;2.51;85.72;102081.66;1767667;79;25767;-84
2022/12/01 01:32:41;;;;;;;19.17;11.70;;;;;;;2.55;85.79;102079.19;1761492;79;25788;-83
2022/12/01 01:35:08;;;;;;;21.77;12.07;;;;;;;2.56;85.75;102078.72;1773734;79;26533;-83
2022/12/01 01:37:34;;;;;;;20.17;11.75;;;;;;;2.55;85.78;102075.68;1747514;79;25296;-84
2022/12/01 01:40:00;;;;;;;19.48;11.48;;;;;;;2.56;85.89;102083.54;1772079;79;28258;-84
2022/12/01 01:42:27;;;;;;;18.55;11.90;;;;;;;2.58;85.95;102085.61;1775440;79;25852;-83
2022/12/01 01:44:57;;;;;;;18.45;11.18;;;;;;;2.56;85.87;102076.92;1778624;79;25765;-83
2022/12/01 01:47:31;;;;;;;19.87;11.88;;;;;;;2.57;85.97;102083.04;1771940;79;25866;-84
2022/12/01 01:50:05;;;;;;;18.02;11.00;;;;;;;2.58;86.04;102086.93;1767052;79;25804;-83
2022/12/01 01:52:45;;;;;;;19.65;12.75;;;;;;;2.59;86.15;102088.61;1777992;79;27428;-83
2022/12/01 01:55:13;;;;;;;19.77;12.07;;;;;;;2.59;86.13;102082.50;1772337;79;26407;-83
2022/12/01 01:57:41;;;;;;;20.17;11.80;;;;;;;2.59;86.16;102083.82;1759315;79;25411;-83
2022/12/01 02:00:12;;;;;;;19.52;11.38;;;;;;;2.61;86.18;102084.56;1767574;79;25930;-83
2022/12/01 02:02:44;;;;;;;19.50;11.05;;;;;;;2.62;86.25;102079.63;1798000;78;25592;-83
2022/12/01 02:05:22;;;;;;;20.88;12.33;;;;;;;2.65;86.27;102076.30;1768063;78;28235;-83
2022/12/01 02:07:51;;;;;;;18.82;11.60;;;;;;;2.63;86.19;102076.88;1792049;78;25919;-84
2022/12/01 02:10:21;;;;;;;21.65;12.47;;;;;;;2.58;86.09;102071.53;1784552;78;26424;-83
2022/12/01 02:13:17;;;;;;;21.12;12.60;;;;;;;2.57;86.25;102080.39;1776642;78;25952;-84
2022/12/01 02:16:07;;;;;;;19.32;11.28;;;;;;;2.56;86.30;102076.07;1801623;78;26479;-83
2022/12/01 02:18:57;;;;;;;19.10;12.23;;;;;;;2.55;86.42;102076.53;1772469;78;27436;-83
2022/12/01 02:21:44;;;;;;;22.70;12.55;;;;;;;2.57;86.61;102081.72;1780790;78;25954;-84
2022/12/01 02:24:42;;;;;;;20.08;12.53;;;;;;;2.59;86.67;102083.32;1787580;78;25246;-84
2022/12/01 02:27:40;;;;;;;24.20;13.35;;;;;;;2.62;86.68;102079.17;1791016;78;26520;-83
2022/12/01 02:30:32;;;;;;;22.40;13.35;;;;;;;2.64;86.64;102080.38;1786341;78;25803;-82
2022/12/01 02:33:09;;;;;;;21.20;12.82;;;;;;;2.64;86.66;102082.56;1775967;78;27471;-82
2022/12/01 02:36:02;;;;;;;19.90;12.55;;;;;;;2.66;86.70;102083.77;1792362;78;25781;-83
2022/12/01 02:38:46;;;;;;;22.35;12.35;;;;;;;2.69;86.79;102078.30;1746151;80;25951;-83
2022/12/01 02:41:30;;;;;;;23.20;12.03;;;;;;;2.72;86.85;102079.40;1749424;80;25857;-83
2022/12/01 02:44:17;;;;;;;19.98;12.20;;;;;;;2.72;86.56;102074.11;1736353;80;25758;-82
2022/12/01 02:47:14;;;;;;;21.40;12.80;;;;;;;2.71;86.73;102078.58;1762614;80;27467;-82
2022/12/01 02:49:48;;;;;;;21.20;12.63;;;;;;;2.73;86.71;102074.50;1764493;80;25944;-83
2022/12/01 02:52:15;;;;;;;18.23;11.93;;;;;;;2.74;86.79;102073.53;1783697;79;25674;-83
2022/12/01 02:54:49;;;;;;;21.68;13.10;;;;;;;2.76;86.80;102076.95;1771803;78;26437;-82
2022/12/01 02:57:16;;;;;;;23.55;13.03;;;;;;;2.76;86.77;102071.16;1761400;79;25818;-83
2022/12/01 02:59:50;;;;;;;21.93;12.23;;;;;;;2.79;86.80;102066.15;1732825;81;27467;-82
2022/12/01 03:02:51;;;;;;;21.95;14.03;;;;;;;2.80;86.80;102069.19;1777189;79;26473;-82
2022/12/01 03:05:44;;;;;;;24.07;13.58;;;;;;;2.79;86.78;102068.80;1770338;79;26102;-83
2022/12/01 03:08:34;;;;;;;19.48;12.80;;;;;;;2.80;86.88;102066.53;1765665;79;25759;-82
2022/12/01 03:11:02;;;;;;;20.80;12.47;;;;;;;2.79;86.75;102067.47;1778166;79;26141;-82
2022/12/01 03:13:55;;;;;;;18.27;12.93;;;;;;;2.76;86.76;102073.81;1795870;79;27426;-82
2022/12/01 03:16:50;;;;;;;21.80;13.28;;;;;;;2.74;86.81;102073.53;1832427;77;25897;-82
2022/12/01 03:19:36;;;;;;;20.77;13.00;;;;;;;2.71;86.97;102065.34;1741327;79;25873;-82
2022/12/01 03:22:16;;;;;;;21.95;13.78;;;;;;;2.74;87.07;102070.88;1772064;79;25971;-82
2022/12/01 03:24:47;;;;;;;20.40;12.25;;;;;;;2.70;87.00;102062.31;1760595;80;26178;-82
2022/12/01 03:27:18;;;;;;;22.40;12.68;;;;;;;2.69;87.09;102061.09;1765320;79;27441;-83
2022/12/01 03:29:48;;;;;;;24.30;14.03;;;;;;;2.68;87.21;102063.36;1763621;79;26214;-83
2022/12/01 03:32:30;;;;;;;19.45;11.97;;;;;;;2.71;87.37;102062.70;1817256;77;25554;-83
2022/12/01 03:35:04;;;;;;;20.17;13.68;;;;;;;2.74;87.42;102061.63;1835069;77;25757;-83
2022/12/01 03:37:48;;;;;;;23.77;13.13;;;;;;;2.75;87.43;102060.22;1810823;77;25299;-83
2022/12/01 03:40:18;;;;;;;20.55;13.55;;;;;;;2.77;87.41;102057.00;1813390;77;27496;-83
2022/12/01 03:42:55;;;;;;;21.97;13.18;;;;;;;2.78;87.33;102065.30;1817887;77;25977;-82
2022/12/01 03:45:56;;;;;;;20.32;13.55;;;;;;;2.74;87.20;102057.19;1827430;77;25866;-82
2022/12/01 03:48:23;;;;;;;22.32;13.90;;;;;;;2.73;87.41;102053.33;1820965;77;26544;-82
2022/12/01 03:51:14;;;;;;;16.95;11.85;;;;;;;2.70;87.45;102056.16;1824284;77;25890;-83
2022/12/01 03:53:51;;;;;;;21.00;13.28;;;;;;;2.70;87.55;102063.63;1814600;77;27460;-82
2022/12/01 03:56:22;;;;;;;20.37;12.98;;;;;;;2.71;87.74;102059.20;1810397;77;25887;-82
2022/12/01 03:58:49;;;;;;;;;;;;;;;2.71;87.76;102065.81;1787158;79;25564;-82
2022/12/01 04:01:16;;;;;;;24.23;14.15;;;;;;;2.71;87.79;102058.73;1761132;79;26947;-83
2022/12/01 04:03:45;;;;;;;21.70;13.45;;;;;;;2.70;87.89;102058.81;1763612;79;25789;-82
2022/12/01 04:06:12;;;;;;;22.45;14.87;;;;;;;2.69;87.78;102060.63;1783970;79;27440;-83
2022/12/01 04:08:38;;;;;;;23.40;14.43;;;;;;;2.68;87.90;102058.06;1762590;79;25847;-82
2022/12/01 04:12:28;;;;;;;18.37;12.37;;;;;;;2.69;87.93;102060.63;1762474;79;25839;-82
2022/12/01 04:13:34;;;;;;;19.57;13.78;;;;;;;2.67;87.93;102054.59;1781351;79;25845;-83
2022/12/01 04:16:00;;;;;;;21.93;13.65;;;;;;;2.68;87.97;102055.42;1771053;79;25749;-83
2022/12/01 04:18:27;;;;;;;19.32;13.43;;;;;;;2.66;87.91;102057.32;1764405;80;27441;-82
2022/12/01 04:20:53;;;;;;;20.92;14.30;;;;;;;2.68;88.06;102059.39;1789545;79;25861;-83
2022/12/01 04:26:04;;;;;;;20.65;13.43;;;;;;;2.64;88.00;102056.57;1772870;79;26259;-82
2022/12/01 04:28:31;;;;;;;23.32;13.78;;;;;;;2.64;88.15;102056.57;1783718;79;25275;-83
2022/12/01 04:30:57;;;;;;;22.22;13.38;;;;;;;2.64;88.21;102064.04;1746715;80;28281;-82
2022/12/01 04:33:23;;;;;;;21.17;13.53;;;;;;;2.65;88.24;102063.58;1805614;78;26286;-83
2022/12/01 04:35:58;;;;;;;20.68;13.80;;;;;;;2.64;88.26;102069.80;1779623;78;25830;-83
2022/12/01 04:38:24;;;;;;;20.88;14.03;;;;;;;2.64;88.31;102065.36;1761413;78;25778;-82
2022/12/01 04:40:51;;;;;;;22.30;13.40;;;;;;;2.66;88.39;102069.22;1746430;80;26502;-83
2022/12/01 04:43:17;;;;;;;21.05;14.58;;;;;;;2.66;88.34;102067.90;1770199;78;27446;-83
2022/12/01 04:45:43;;;;;;;20.32;13.88;;;;;;;2.65;88.37;102072.83;1797067;78;25944;-83
2022/12/01 04:48:10;;;;;;;23.62;15.70;;;;;;;2.67;88.49;102071.79;1802133;78;25750;-83
2022/12/01 04:50:36;;;;;;;21.55;14.20;;;;;;;2.70;88.51;102072.89;1808974;78;25936;-84
2022/12/01 04:53:03;;;;;;;22.67;14.18;;;;;;;2.72;88.47;102072.78;1768271;80;25779;-83
2022/12/01 04:55:29;;;;;;;21.97;14.58;;;;;;;2.75;88.51;102079.21;1750989;80;27440;-83
2022/12/01 04:57:56;;;;;;;23.45;14.38;;;;;;;2.73;88.40;102079.32;1778294;78;25895;-83
2022/12/01 05:00:23;;;;;;;24.07;16.20;;;;;;;2.75;88.48;102077.42;1790592;78;25795;-82
2022/12/01 05:02:49;;;;;;;26.23;15.83;;;;;;;2.76;88.48;102075.13;1763754;80;25781;-82
2022/12/01 05:05:16;;;;;;;23.20;14.58;;;;;;;2.75;88.38;102077.42;1772007;80;26100;-82
2022/12/01 05:07:42;;;;;;;22.93;15.23;;;;;;;2.74;88.33;102077.50;1778795;79;27430;-83
2022/12/01 05:10:09;;;;;;;25.45;15.35;;;;;;;2.74;88.42;102076.17;1788554;78;25794;-83
2022/12/01 05:12:36;;;;;;;24.65;15.38;;;;;;;2.76;88.43;102086.22;1790529;79;25778;-82
2022/12/01 05:15:03;;;;;;;19.12;13.75;;;;;;;2.75;88.41;102084.50;1757476;80;25825;-82
2022/12/01 05:17:30;;;;;;;22.87;15.05;;;;;;;2.74;88.35;102090.73;1780100;79;25276;-82
2022/12/01 05:22:42;;;;;;;24.18;15.45;;;;;;;2.68;88.34;102086.70;1772390;80;25905;-82
2022/12/01 05:25:08;;;;;;;24.37;15.08;;;;;;;2.66;88.45;102085.09;1772628;79;25778;-82
2022/12/01 05:27:34;;;;;;;25.45;15.48;;;;;;;2.65;88.49;102087.38;1788791;78;25892;-82
2022/12/01 05:30:01;;;;;;;25.35;15.63;;;;;;;2.65;88.63;102081.59;1799827;78;25783;-82
2022/12/01 05:32:27;;;;;;;25.27;15.95;;;;;;;2.65;88.56;102082.09;1773928;80;27411;-82
2022/12/01 05:34:53;;;;;;;24.10;15.88;;;;;;;2.64;88.56;102086.99;1768967;79;26375;-83
2022/12/01 05:37:19;;;;;;;28.32;17.35;;;;;;;2.59;88.45;102087.78;1763850;79;25914;-82
2022/12/01 05:39:46;;;;;;;25.80;16.20;;;;;;;2.55;88.57;102086.26;1758668;79;25902;-83
2022/12/01 05:42:12;;;;;;;30.60;17.80;;;;;;;2.53;88.76;102094.30;1769370;79;25880;-83
2022/12/01 05:44:38;;;;;;;25.37;16.50;;;;;;;2.53;88.77;102082.87;1734152;80;29738;-83
2022/12/01 05:47:05;;;;;;;24.57;16.48;;;;;;;2.51;88.84;102084.77;1769303;79;25270;-82
2022/12/01 05:49:31;;;;;;;26.17;16.85;;;;;;;2.52;88.97;102086.48;1764484;79;25754;-82
2022/12/01 05:51:57;;;;;;;21.37;15.08;;;;;;;2.53;88.97;102087.69;1770691;80;26478;-81
2022/12/01 05:54:23;;;;;;;21.23;14.33;;;;;;;2.51;88.96;102084.30;1762280;79;26000;-82
2022/12/01 05:56:50;;;;;;;25.32;15.83;;;;;;;2.50;89.00;102081.30;1767475;79;27443;-82
2022/12/01 05:59:16;;;;;;;23.32;15.28;;;;;;;2.53;89.17;102078.91;1766644;79;25562;-82
2022/12/01 06:01:42;;;;;;;23.18;15.32;;;;;;;2.56;89.15;102076.07;1771998;79;26070;-82
2022/12/01 06:04:09;;;;;;;23.83;15.25;;;;;;;2.54;88.97;102081.94;1771291;79;25789;-81
2022/12/01 06:06:35;;;;;;;23.62;14.70;;;;;;;2.49;88.95;102074.77;1769976;79;25805;-84
2022/12/01 06:09:01;;;;;;;22.35;14.50;;;;;;;2.50;89.24;102083.94;1771883;79;27453;-85
2022/12/01 06:11:27;;;;;;;24.60;16.07;;;;;;;2.55;89.38;102084.94;1760550;79;25798;-85
2022/12/01 06:13:54;;;;;;;22.37;14.55;;;;;;;2.59;89.40;102085.14;1758310;79;25748;-83
2022/12/01 06:16:20;;;;;;;25.52;16.75;;;;;;;2.60;89.25;102086.83;1760018;79;25844;-83
2022/12/01 06:18:46;;;;;;;25.45;16.77;;;;;;;2.58;89.21;102088.72;1760883;79;25333;-82
2022/12/01 06:21:12;;;;;;;21.82;15.63;;;;;;;2.57;89.17;102088.33;1748067;80;27428;-83
2022/12/01 06:23:39;;;;;;;23.45;15.32;;;;;;;2.56;89.15;102087.97;1755787;79;26421;-82
2022/12/01 06:26:05;;;;;;;31.30;17.25;;;;;;;2.54;89.14;102090.73;1756593;80;26265;-82
2022/12/01 06:28:31;;;;;;;26.73;16.70;;;;;;;2.53;89.15;102094.77;1741655;80;25749;-82
2022/12/01 06:30:58;;;;;;;22.90;15.70;;;;;;;2.50;89.17;102091.02;1748070;80;25292;-83
2022/12/01 06:33:24;;;;;;;27.85;16.73;;;;;;;2.49;89.20;102098.09;1762893;80;27429;-83
2022/12/01 06:35:59;;;;;;;27.40;17.37;;;;;;;2.47;89.25;102089.88;1764990;80;26227;-82
2022/12/01 06:38:33;;;;;;;28.35;17.30;;;;;;;2.46;89.24;102092.99;1759424;80;26167;-83
2022/12/01 06:41:00;;;;;;;25.90;16.52;;;;;;;2.45;89.37;102083.84;1773687;79;27003;-83
2022/12/01 06:43:26;;;;;;;24.90;16.93;;;;;;;2.43;89.44;102086.59;1752172;80;25876;-83
2022/12/01 06:45:53;;;;;;;24.92;16.45;;;;;;;2.45;89.47;102083.84;1758012;80;27495;-83
2022/12/01 06:48:19;;;;;;;22.90;16.42;;;;;;;2.44;89.52;102082.98;1751760;79;25856;-83
2022/12/01 06:50:45;;;;;;;25.43;17.17;;;;;;;2.42;89.48;102087.53;1758990;79;26407;-83
2022/12/01 06:53:11;;;;;;;28.47;17.20;;;;;;;2.37;89.49;102092.28;1755812;80;26534;-83
2022/12/01 06:55:38;;;;;;;24.80;16.48;;;;;;;2.35;89.68;102090.22;1762359;80;25929;-83
2022/12/01 06:58:05;;;;;;;26.42;17.48;;;;;;;2.36;89.81;102087.92;1758527;80;26860;-83
2022/12/01 07:00:31;;;;;;;29.05;18.50;;;;;;;2.37;89.94;102094.92;1760315;79;25892;-83
2022/12/01 07:02:57;;;;;;;29.00;16.87;;;;;;;2.40;90.01;102092.53;1769685;79;25777;-83
2022/12/01 07:05:25;;;;;;;28.40;18.70;;;;;;;2.41;89.99;102088.95;1769326;79;25766;-84
2022/12/01 07:07:51;;;;;;;26.25;17.00;;;;;;;2.40;90.03;102097.36;1767139;79;25821;-83
2022/12/01 07:10:17;;;;;;;25.88;17.50;;;;;;;2.41;90.02;102096.89;1765196;79;27511;-83
2022/12/01 07:12:44;;;;;;;26.10;17.60;;;;;;;2.39;90.08;102089.06;1775053;79;26253;-84
2022/12/01 07:15:10;;;;;;;29.00;18.17;;;;;;;2.37;90.06;102083.03;1760824;79;26000;-82
2022/12/01 07:17:36;;;;;;;28.83;19.32;;;;;;;2.34;90.14;102091.14;1757734;79;26012;-82
2022/12/01 07:20:03;;;;;;;32.63;17.75;;;;;;;2.34;90.31;102095.11;1757424;79;25891;-83
2022/12/01 07:22:30;;;;;;;27.45;17.30;;;;;;;2.35;90.34;102087.57;1779248;79;27696;-83
2022/12/01 07:24:56;;;;;;;31.23;18.65;;;;;;;2.35;90.44;102088.39;1774523;79;25841;-83
2022/12/01 07:27:23;;;;;;;29.87;18.50;;;;;;;2.35;90.48;102087.07;1764345;80;25742;-84
2022/12/01 07:29:49;;;;;;;31.40;18.37;;;;;;;2.35;90.43;102088.39;1762475;80;25818;-83
2022/12/01 07:32:15;;;;;;;26.27;17.45;;;;;;;2.39;90.61;102094.35;1778399;79;26065;-83
2022/12/01 07:34:41;;;;;;;27.75;18.05;;;;;;;2.41;90.59;102090.28;1756684;79;27467;-83
2022/12/01 07:37:08;;;;;;;30.27;19.00;;;;;;;2.41;90.67;102094.25;1761033;80;25316;-83
2022/12/01 07:39:34;;;;;;;31.52;18.65;;;;;;;2.45;90.75;102095.28;1760529;79;25929;-83
2022/12/01 07:42:00;;;;;;;27.77;18.00;;;;;;;2.47;90.71;102096.03;1761880;79;25758;-83
2022/12/01 07:44:27;;;;;;;25.70;16.80;;;;;;;2.49;90.67;102094.59;1764503;79;25845;-83
2022/12/01 07:46:53;;;;;;;27.95;16.95;;;;;;;2.48;90.49;102091.59;1766902;79;28505;-83
2022/12/01 07:49:20;;;;;;;27.40;17.60;;;;;;;2.48;90.63;102091.59;1766178;79;26077;-83
2022/12/01 07:51:46;;;;;;;28.75;18.60;;;;;;;2.50;90.64;102093.66;1776909;79;26395;-83
2022/12/01 07:54:18;;;;;;;39.23;22.75;;;;;;;2.52;90.75;102097.91;1767388;79;25823;-83
2022/12/01 07:56:44;;;;;;;23.70;16.45;;;;;;;2.53;90.73;102100.06;1765929;79;26115;-83
2022/12/01 07:59:11;;;;;;;27.15;18.07;;;;;;;2.50;90.68;102093.20;1773704;79;28140;-83
2022/12/01 08:01:37;;;;;;;31.45;18.40;;;;;;;2.50;90.71;102097.16;1757876;79;25916;-83
2022/12/01 08:04:04;;;;;;;29.35;18.70;;;;;;;2.51;90.73;102098.84;1767608;79;25634;-82
2022/12/01 08:06:30;;;;;;;25.45;16.42;;;;;;;2.51;90.74;102096.20;1756243;79;25813;-83
2022/12/01 08:08:56;;;;;;;24.80;16.37;;;;;;;2.53;90.92;102094.77;1772346;79;25859;-83
2022/12/01 08:11:28;;;;;;;27.67;18.70;;;;;;;2.52;90.82;102097.05;1770226;79;27450;-83
2022/12/01 08:13:55;;;;;;;28.40;18.42;;;;;;;2.51;90.88;102092.70;1753653;79;25379;-86
2022/12/01 08:16:24;;;;;;;26.48;17.07;;;;;;;2.50;90.72;102098.48;1766177;79;25342;-87
2022/12/01 08:19:02;;;;;;;;;;;;;;;;;;;;;
2022/12/01 08:21:36;;;;;;;;;;;;;;;;;;;;;
2022/12/01 08:24:28;;;;;;;;;;;;;;;;;;;;;
2022/12/01 08:26:46;;;;;;;;;;;;;;;;;;;;;
2022/12/01 08:29:19;;;;;;;25.92;15.70;;;;;;;2.53;91.24;102096.95;1646892;84;25761;-84
2022/12/01 08:31:55;;;;;;;;;;;;;;;;;;;;;
2022/12/01 08:34:17;;;;;;;26.57;18.17;;;;;;;2.52;90.92;102099.70;1648699;84;26483;-87
2022/12/01 08:36:45;;;;;;;27.55;18.27;;;;;;;2.52;90.87;102100.56;1677935;83;27487;-86
2022/12/01 08:39:11;;;;;;;26.33;17.45;;;;;;;2.53;90.97;102110.17;1760193;78;26127;-82
2022/12/01 08:41:38;;;;;;;26.93;16.73;;;;;;;2.54;90.98;102107.06;1779027;79;25994;-84
2022/12/01 08:44:04;;;;;;;29.60;18.60;;;;;;;2.55;90.92;102105.63;1777504;79;25761;-79
2022/12/01 08:46:33;;;;;;;29.10;17.95;;;;;;;2.56;90.96;102113.10;1773337;79;25962;-80
2022/12/01 08:49:01;;;;;;;31.33;19.27;;;;;;;2.54;90.96;102114.53;1770076;79;27522;-80
2022/12/01 08:51:28;;;;;;;31.77;20.50;;;;;;;2.58;91.15;102112.53;1777088;79;25538;-79
2022/12/01 08:53:56;;;;;;;32.23;20.32;;;;;;;2.63;91.18;102111.77;1773766;79;26593;-79
2022/12/01 08:56:33;;;;;;;30.68;18.77;;;;;;;2.66;91.19;102118.16;1773016;78;25811;-79
2022/12/01 08:59:00;;;;;;;30.88;17.02;;;;;;;2.68;90.98;102110.98;1769042;79;25437;-79
2022/12/01 09:01:27;;;;;;;26.97;18.07;;;;;;;2.68;90.87;102110.51;1763554;79;27442;-86
2022/12/01 09:04:07;;;;;;;32.25;20.60;;;;;;;2.68;90.80;102114.47;1768644;79;26668;-87
2022/12/01 09:06:42;;;;;;;32.28;20.23;;;;;;;2.70;90.90;102117.02;1775882;79;25801;-82
2022/12/01 09:09:16;;;;;;;24.63;16.65;;;;;;;2.74;91.09;102115.86;1775797;79;25849;-82
2022/12/01 09:11:43;;;;;;;28.67;17.50;;;;;;;2.73;90.66;102108.42;1771514;79;25817;-81
2022/12/01 09:14:16;;;;;;;23.92;16.00;;;;;;;2.74;90.66;102109.25;1774096;79;27439;-83
2022/12/01 09:16:45;;;;;;;25.88;16.45;;;;;;;2.75;90.63;102112.28;1775230;79;25817;-83
2022/12/01 09:19:13;;;;;;;25.70;15.50;;;;;;;2.73;90.50;102109.75;1778301;79;25783;-81
2022/12/01 09:21:42;;;;;;;23.95;16.32;;;;;;;2.71;90.34;102106.36;1763557;79;26538;-82
2022/12/01 09:24:12;;;;;;;24.27;17.00;;;;;;;2.69;90.24;102108.72;1776319;79;25321;-84
2022/12/01 09:26:39;;;;;;;27.25;18.42;;;;;;;2.68;90.43;102107.00;1762442;79;27456;-85
2022/12/01 09:29:09;;;;;;;26.73;17.48;;;;;;;2.65;90.20;102108.05;1741076;80;25922;-87
2022/12/01 09:31:36;;;;;;;26.57;17.85;;;;;;;2.67;90.54;102107.50;1773620;79;25756;-87
2022/12/01 09:34:07;;;;;;;24.82;16.32;;;;;;;2.67;90.37;102106.19;1770802;79;25813;-87
2022/12/01 09:36:35;;;;;;;24.67;16.07;;;;;;;2.66;90.30;102100.50;1771215;79;25301;-84
2022/12/01 09:39:04;;;;;;;26.95;17.35;;;;;;;2.66;90.24;102104.47;1761288;79;27452;-84
2022/12/01 09:41:36;;;;;;;25.92;16.23;;;;;;;2.68;90.35;102101.72;1754022;80;25914;-84
2022/12/01 09:44:15;;;;;;;23.80;15.68;;;;;;;2.70;90.32;102099.81;1765457;79;25778;-84
2022/12/01 09:46:58;;;;;;;21.37;15.08;;;;;;;2.68;90.12;102102.57;1762737;79;25973;-85
2022/12/01 09:49:30;;;;;;;27.00;16.93;;;;;;;2.67;90.17;102102.22;1749046;79;25825;-86
2022/12/01 09:51:59;;;;;;;26.12;17.40;;;;;;;2.66;90.30;102098.32;1759428;79;28387;-86
2022/12/01 09:54:26;;;;;;;25.68;17.07;;;;;;;2.67;90.33;102096.92;1773878;79;25836;-85
2022/12/01 09:56:59;;;;;;;26.75;16.97;;;;;;;2.67;90.29;102095.59;1769998;79;25939;-86
2022/12/01 09:59:30;;;;;;;26.27;17.37;;;;;;;2.65;90.27;102098.79;1780968;79;25809;-86
2022/12/01 10:02:01;;;;;;;27.35;17.62;;;;;;;2.66;90.47;102100.50;1763996;79;25456;-87
2022/12/01 10:04:37;;;;;;;27.48;17.75;;;;;;;2.67;90.56;102099.57;1745958;79;27462;-86
2022/12/01 10:07:26;;;;;;;23.95;16.20;;;;;;;2.72;90.76;102095.27;1754053;79;25371;-86
2022/12/01 10:10:00;;;;;;;28.32;18.27;;;;;;;2.74;90.78;102092.05;1757265;79;26315;-85
2022/12/01 10:12:34;;;;;;;27.93;17.32;;;;;;;2.75;90.86;102088.00;1760464;80;25766;-88
2022/12/01 10:15:32;;;;;;;32.05;22.98;;;;;;;2.78;90.66;102089.61;1702040;81;44783;-87
2022/12/01 10:18:16;;;;;;;27.82;19.02;;;;;;;2.95;90.39;102084.88;1755474;79;27474;-84
2022/12/01 10:21:14;;;;;;;29.80;18.77;;;;;;;2.92;90.26;102083.77;1756133;79;26327;-86
2022/12/01 10:24:12;;;;;;;31.85;19.05;;;;;;;2.87;90.18;102081.04;1751507;79;25811;-86
2022/12/01 10:27:17;;;;;;;34.13;20.72;;;;;;;2.80;90.17;102082.41;1756963;79;26542;-85
2022/12/01 10:30:07;;;;;;;28.77;17.42;;;;;;;2.78;90.33;102082.49;1755957;79;25778;-87
2022/12/01 10:33:02;;;;;;;32.93;19.93;;;;;;;2.74;90.41;102078.35;1764002;79;28363;-84
2022/12/01 10:35:36;;;;;;;31.48;20.30;;;;;;;2.71;90.61;102073.28;1753722;79;25836;-86
2022/12/01 10:38:12;;;;;;;31.80;18.80;;;;;;;2.73;90.65;102076.67;1729194;79;25797;-85
2022/12/01 10:40:40;;;;;;;30.12;19.42;;;;;;;2.76;90.80;102069.02;1763770;79;26691;-86
2022/12/01 10:43:09;;;;;;;30.55;19.45;;;;;;;2.79;90.93;102066.15;1762301;79;25828;-84
2022/12/01 10:45:44;;;;;;;28.02;18.07;;;;;;;2.78;90.53;102065.30;1760009;79;27517;-84
2022/12/01 10:48:18;;;;;;;30.60;19.52;;;;;;;2.78;90.53;102063.97;1759848;79;25873;-85
2022/12/01 10:50:51;;;;;;;29.67;18.35;;;;;;;2.77;90.57;102058.33;1771467;79;26162;-87
2022/12/01 10:53:32;;;;;;;29.65;18.55;;;;;;;2.76;90.41;102055.29;1750391;79;26950;-86
2022/12/01 10:56:12;;;;;;;27.77;18.32;;;;;;;2.73;90.41;102048.89;1759894;79;25736;-81
2022/12/01 10:58:55;;;;;;;26.10;16.48;;;;;;;2.72;90.37;102042.36;1764674;79;27452;-84
2022/12/01 11:01:30;;;;;;;26.52;16.97;;;;;;;2.71;90.51;102044.18;1754941;79;25949;-81
2022/12/01 11:04:19;;;;;;;25.77;16.67;;;;;;;2.71;90.42;102042.00;1758236;79;25838;-84
2022/12/01 11:06:50;;;;;;;24.00;16.35;;;;;;;2.70;90.36;102035.86;1754361;79;25771;-83
2022/12/01 11:09:19;;;;;;;;;;;;;;;2.72;90.57;102041.03;1755321;80;25577;-85
2022/12/01 11:11:49;;;;;;;24.90;15.58;;;;;;;2.74;90.55;102033.84;1769788;79;27091;-84
2022/12/01 11:14:19;;;;;;;27.10;16.07;;;;;;;2.74;90.73;102032.52;1755894;79;32575;-84
2022/12/01 11:16:50;;;;;;;25.50;15.90;;;;;;;2.76;90.67;102035.45;1754991;79;25702;-87
2022/12/01 11:19:33;;;;;;;23.02;15.72;;;;;;;2.76;90.51;102030.66;1753901;79;25815;-85
2022/12/01 11:22:19;;;;;;;25.15;16.55;;;;;;;2.75;90.49;102032.91;1757495;79;25799;-82
2022/12/01 11:24:59;;;;;;;25.37;15.10;;;;;;;2.77;90.69;102034.52;1751891;80;27450;-82
2022/12/01 11:27:36;;;;;;;24.35;16.07;;;;;;;2.72;90.17;102038.39;1756521;79;25787;-82
2022/12/01 11:30:10;;;;;;;23.60;15.15;;;;;;;2.66;90.41;102031.72;1755847;79;25537;-85
2022/12/01 11:32:39;;;;;;;24.77;16.07;;;;;;;2.66;90.49;102034.83;1768641;80;26380;-84
2022/12/01 11:35:16;;;;;;;26.30;16.93;;;;;;;2.63;90.25;102029.27;1767395;78;26132;-86
2022/12/01 11:37:50;;;;;;;25.43;16.60;;;;;;;2.61;90.48;102025.88;1777192;78;27656;-83
2022/12/01 11:40:29;;;;;;;24.55;15.28;;;;;;;2.64;90.64;102030.13;1790436;79;25873;-85
2022/12/01 11:43:00;;;;;;;24.37;15.20;;;;;;;2.64;90.62;102029.66;1788872;79;26160;-84
2022/12/01 11:45:39;;;;;;;29.25;15.90;;;;;;;2.65;90.70;102033.98;1789456;79;25820;-82
2022/12/01 11:48:25;;;;;;;24.40;15.05;;;;;;;2.64;90.52;102027.48;1751963;80;25829;-84
2022/12/01 11:51:18;;;;;;;25.55;15.68;;;;;;;2.62;90.54;102034.20;1759715;80;28725;-81